sensor_id;sensor_type;location;lat;lon;timestamp;pressure;altitude;pressure_sealevel;temperature;humidity
73101;BME280;61288;53.446;-2.266;2023-04-02T00:00:26;101870.19;;;6.69;83.33
73101;BME280;61288;53.446;-2.266;2023-04-02T00:03:07;101879.66;;;6.67;83.84
73101;BME280;61288;53.446;-2.266;2023-04-02T00:05:38;101879.66;;;6.68;83.30
73101;BME280;61288;53.446;-2.266;2023-04-02T00:08:38;101880.50;;;6.69;83.40
73101;BME280;61288;53.446;-2.266;2023-04-02T00:11:06;101883.09;;;6.69;83.85
73101;BME280;61288;53.446;-2.266;2023-04-02T00:13:43;101890.81;;;6.69;83.64
73101;BME280;61288;53.446;-2.266;2023-04-02T00:16:13;101894.25;;;6.68;83.53
73101;BME280;61288;53.446;-2.266;2023-04-02T00:18:44;101893.41;;;6.67;83.49
73101;BME280;61288;53.446;-2.266;2023-04-02T00:21:25;101895.97;;;6.67;83.67
73101;BME280;61288;53.446;-2.266;2023-04-02T00:23:53;101907.13;;;6.68;84.12
73101;BME280;61288;53.446;-2.266;2023-04-02T00:26:33;101909.72;;;6.66;84.00
73101;BME280;61288;53.446;-2.266;2023-04-02T00:29:01;101908.03;;;6.65;84.13
73101;BME280;61288;53.446;-2.266;2023-04-02T00:31:28;101904.56;;;6.64;82.72
73101;BME280;61288;53.446;-2.266;2023-04-02T00:33:55;101919.16;;;6.65;83.83
73101;BME280;61288;53.446;-2.266;2023-04-02T00:36:22;101910.59;;;6.63;83.37
73101;BME280;61288;53.446;-2.266;2023-04-02T00:38:49;101914.00;;;6.65;83.36
73101;BME280;61288;53.446;-2.266;2023-04-02T00:41:21;101923.47;;;6.63;83.47
73101;BME280;61288;53.446;-2.266;2023-04-02T00:43:48;101924.31;;;6.62;84.29
73101;BME280;61288;53.446;-2.266;2023-04-02T00:46:21;101931.19;;;6.63;83.38
73101;BME280;61288;53.446;-2.266;2023-04-02T00:49:02;101926.91;;;6.64;83.52
73101;BME280;61288;53.446;-2.266;2023-04-02T00:51:38;101936.34;;;6.65;83.55
73101;BME280;61288;53.446;-2.266;2023-04-02T00:54:09;101936.34;;;6.63;83.23
73101;BME280;61288;53.446;-2.266;2023-04-02T00:56:43;101943.22;;;6.64;83.45
73101;BME280;61288;53.446;-2.266;2023-04-02T00:59:42;101953.50;;;6.64;83.45
73101;BME280;61288;53.446;-2.266;2023-04-02T01:04:40;101954.38;;;6.65;83.80
73101;BME280;61288;53.446;-2.266;2023-04-02T01:07:08;101963.81;;;6.64;83.96
73101;BME280;61288;53.446;-2.266;2023-04-02T01:17:59;101969.81;;;6.63;83.99
73101;BME280;61288;53.446;-2.266;2023-04-02T01:22:39;101973.25;;;6.62;83.60
73101;BME280;61288;53.446;-2.266;2023-04-02T01:25:26;101970.69;;;6.61;83.90
73101;BME280;61288;53.446;-2.266;2023-04-02T01:28:06;101973.25;;;6.62;84.09
73101;BME280;61288;53.446;-2.266;2023-04-02T01:30:34;101976.72;;;6.63;83.96
73101;BME280;61288;53.446;-2.266;2023-04-02T01:33:01;101976.72;;;6.63;84.38
73101;BME280;61288;53.446;-2.266;2023-04-02T01:35:30;101977.56;;;6.63;84.24
73101;BME280;61288;53.446;-2.266;2023-04-02T01:38:11;101974.97;;;6.62;84.35
73101;BME280;61288;53.446;-2.266;2023-04-02T01:41:10;101977.56;;;6.60;84.67
73101;BME280;61288;53.446;-2.266;2023-04-02T01:44:13;101981.84;;;6.57;84.75
73101;BME280;61288;53.446;-2.266;2023-04-02T01:46:42;101987.03;;;6.55;85.02
73101;BME280;61288;53.446;-2.266;2023-04-02T01:49:13;101989.59;;;6.55;84.33
73101;BME280;61288;53.446;-2.266;2023-04-02T01:51:45;101998.19;;;6.57;83.81
73101;BME280;61288;53.446;-2.266;2023-04-02T01:54:15;102003.34;;;6.57;84.93
73101;BME280;61288;53.446;-2.266;2023-04-02T01:56:42;102000.75;;;6.56;85.05
73101;BME280;61288;53.446;-2.266;2023-04-02T01:59:10;102002.47;;;6.57;84.51
73101;BME280;61288;53.446;-2.266;2023-04-02T02:04:11;102005.91;;;6.57;83.67
73101;BME280;61288;53.446;-2.266;2023-04-02T02:06:38;102010.19;;;6.58;83.58
73101;BME280;61288;53.446;-2.266;2023-04-02T02:09:06;102017.06;;;6.59;83.46
73101;BME280;61288;53.446;-2.266;2023-04-02T02:11:33;102017.06;;;6.59;83.64
73101;BME280;61288;53.446;-2.266;2023-04-02T02:14:23;102019.63;;;6.59;82.93
73101;BME280;61288;53.446;-2.266;2023-04-02T02:16:49;102023.94;;;6.57;83.03
73101;BME280;61288;53.446;-2.266;2023-04-02T02:24:50;102028.22;;;6.58;82.71
73101;BME280;61288;53.446;-2.266;2023-04-02T02:32:21;102039.38;;;6.56;83.80
73101;BME280;61288;53.446;-2.266;2023-04-02T02:35:15;102052.28;;;6.54;83.79
73101;BME280;61288;53.446;-2.266;2023-04-02T02:37:42;102055.69;;;6.55;83.64
73101;BME280;61288;53.446;-2.266;2023-04-02T02:40:20;102062.56;;;6.53;84.46
73101;BME280;61288;53.446;-2.266;2023-04-02T02:42:51;102059.97;;;6.53;84.26
73101;BME280;61288;53.446;-2.266;2023-04-02T02:45:23;102054.84;;;6.51;84.10
73101;BME280;61288;53.446;-2.266;2023-04-02T02:47:50;102064.28;;;6.50;84.39
73101;BME280;61288;53.446;-2.266;2023-04-02T02:50:26;102066.84;;;6.50;84.16
73101;BME280;61288;53.446;-2.266;2023-04-02T02:53:02;102069.44;;;6.52;84.49
73101;BME280;61288;53.446;-2.266;2023-04-02T02:55:35;102072.88;;;6.49;84.07
73101;BME280;61288;53.446;-2.266;2023-04-02T02:58:09;102084.03;;;6.48;84.60
73101;BME280;61288;53.446;-2.266;2023-04-02T03:00:36;102087.47;;;6.47;84.88
73101;BME280;61288;53.446;-2.266;2023-04-02T03:03:08;102075.47;;;6.48;85.11
73101;BME280;61288;53.446;-2.266;2023-04-02T03:05:36;102083.19;;;6.46;84.66
73101;BME280;61288;53.446;-2.266;2023-04-02T03:08:03;102093.50;;;6.48;85.15
73101;BME280;61288;53.446;-2.266;2023-04-02T03:10:46;102092.59;;;6.46;84.98
73101;BME280;61288;53.446;-2.266;2023-04-02T03:13:22;102098.59;;;6.45;84.49
73101;BME280;61288;53.446;-2.266;2023-04-02T03:16:00;102096.03;;;6.46;84.52
73101;BME280;61288;53.446;-2.266;2023-04-02T03:18:51;102093.47;;;6.45;84.56
73101;BME280;61288;53.446;-2.266;2023-04-02T03:24:16;102105.47;;;6.46;85.44
73101;BME280;61288;53.446;-2.266;2023-04-02T03:26:48;102109.78;;;6.42;85.59
73101;BME280;61288;53.446;-2.266;2023-04-02T03:29:21;102111.50;;;6.43;85.55
73101;BME280;61288;53.446;-2.266;2023-04-02T03:31:55;102113.22;;;6.41;85.39
73101;BME280;61288;53.446;-2.266;2023-04-02T03:34:33;102122.66;;;6.44;85.40
73101;BME280;61288;53.446;-2.266;2023-04-02T03:37:23;102126.09;;;6.44;85.45
73101;BME280;61288;53.446;-2.266;2023-04-02T03:40:36;102128.66;;;6.41;85.80
73101;BME280;61288;53.446;-2.266;2023-04-02T03:42:57;102132.09;;;6.43;85.79
73101;BME280;61288;53.446;-2.266;2023-04-02T03:45:28;102132.94;;;6.41;85.74
73101;BME280;61288;53.446;-2.266;2023-04-02T03:48:10;102133.81;;;6.40;85.74
73101;BME280;61288;53.446;-2.266;2023-04-02T03:53:07;102153.56;;;6.39;85.89
73101;BME280;61288;53.446;-2.266;2023-04-02T03:55:35;102151.00;;;6.39;85.45
73101;BME280;61288;53.446;-2.266;2023-04-02T03:58:22;102140.66;;;6.38;85.36
73101;BME280;61288;53.446;-2.266;2023-04-02T04:01:14;102155.25;;;6.39;85.74
73101;BME280;61288;53.446;-2.266;2023-04-02T04:03:46;102157.00;;;6.38;85.53
73101;BME280;61288;53.446;-2.266;2023-04-02T04:06:24;102162.13;;;6.40;85.76
73101;BME280;61288;53.446;-2.266;2023-04-02T04:09:06;102168.13;;;6.39;85.45
73101;BME280;61288;53.446;-2.266;2023-04-02T04:11:36;102169.00;;;6.38;85.62
73101;BME280;61288;53.446;-2.266;2023-04-02T04:14:16;102172.44;;;6.38;85.84
73101;BME280;61288;53.446;-2.266;2023-04-02T04:16:48;102175.88;;;6.37;86.78
73101;BME280;61288;53.446;-2.266;2023-04-02T04:19:36;102172.44;;;6.33;85.79
73101;BME280;61288;53.446;-2.266;2023-04-02T04:22:23;102177.56;;;6.36;85.92
73101;BME280;61288;53.446;-2.266;2023-04-02T04:25:06;102180.16;;;6.36;86.18
73101;BME280;61288;53.446;-2.266;2023-04-02T04:28:01;102187.88;;;6.33;85.95
73101;BME280;61288;53.446;-2.266;2023-04-02T04:33:22;102193.88;;;6.35;85.65
73101;BME280;61288;53.446;-2.266;2023-04-02T04:35:56;102195.59;;;6.36;85.42
73101;BME280;61288;53.446;-2.266;2023-04-02T04:38:32;102198.16;;;6.33;85.12
73101;BME280;61288;53.446;-2.266;2023-04-02T04:41:03;102200.75;;;6.33;85.11
73101;BME280;61288;53.446;-2.266;2023-04-02T04:44:00;102193.91;;;6.31;85.11
73101;BME280;61288;53.446;-2.266;2023-04-02T04:54:26;102208.44;;;6.22;86.20
73101;BME280;61288;53.446;-2.266;2023-04-02T04:57:00;102213.59;;;6.21;85.36
73101;BME280;61288;53.446;-2.266;2023-04-02T04:59:40;102218.75;;;6.21;85.62
73101;BME280;61288;53.446;-2.266;2023-04-02T05:02:11;102225.63;;;6.22;86.29
73101;BME280;61288;53.446;-2.266;2023-04-02T05:04:46;102225.59;;;6.20;85.73
73101;BME280;61288;53.446;-2.266;2023-04-02T05:07:26;102234.19;;;6.19;85.50
73101;BME280;61288;53.446;-2.266;2023-04-02T05:12:31;102234.19;;;6.16;84.09
73101;BME280;61288;53.446;-2.266;2023-04-02T05:20:35;102253.91;;;6.11;85.06
73101;BME280;61288;53.446;-2.266;2023-04-02T05:23:28;102258.16;;;6.11;85.12
73101;BME280;61288;53.446;-2.266;2023-04-02T05:28:44;102265.91;;;6.09;85.11
73101;BME280;61288;53.446;-2.266;2023-04-02T05:31:53;102265.88;;;6.11;84.82
73101;BME280;61288;53.446;-2.266;2023-04-02T05:34:13;102263.31;;;6.09;84.41
73101;BME280;61288;53.446;-2.266;2023-04-02T05:36:46;102275.34;;;6.10;84.11
73101;BME280;61288;53.446;-2.266;2023-04-02T05:39:22;102271.06;;;6.09;84.12
73101;BME280;61288;53.446;-2.266;2023-04-02T05:44:30;102273.59;;;6.04;84.17
73101;BME280;61288;53.446;-2.266;2023-04-02T05:47:13;102271.03;;;6.04;84.01
73101;BME280;61288;53.446;-2.266;2023-04-02T05:49:55;102279.59;;;6.03;83.98
73101;BME280;61288;53.446;-2.266;2023-04-02T05:52:29;102287.31;;;6.02;83.93
73101;BME280;61288;53.446;-2.266;2023-04-02T05:57:41;102286.44;;;6.00;83.89
73101;BME280;61288;53.446;-2.266;2023-04-02T06:00:14;102288.16;;;6.02;84.57
73101;BME280;61288;53.446;-2.266;2023-04-02T06:02:43;102304.47;;;6.01;84.09
73101;BME280;61288;53.446;-2.266;2023-04-02T06:05:21;102301.00;;;5.99;83.67
73101;BME280;61288;53.446;-2.266;2023-04-02T06:08:06;102309.56;;;5.98;83.97
73101;BME280;61288;53.446;-2.266;2023-04-02T06:10:58;102313.88;;;5.98;82.96
73101;BME280;61288;53.446;-2.266;2023-04-02T06:13:26;102314.72;;;5.97;83.40
73101;BME280;61288;53.446;-2.266;2023-04-02T06:15:53;102330.13;;;5.93;82.85
73101;BME280;61288;53.446;-2.266;2023-04-02T06:18:34;102336.13;;;5.94;83.04
73101;BME280;61288;53.446;-2.266;2023-04-02T06:21:02;102343.84;;;5.92;82.75
73101;BME280;61288;53.446;-2.266;2023-04-02T06:23:54;102336.13;;;5.91;82.91
73101;BME280;61288;53.446;-2.266;2023-04-02T06:26:34;102350.72;;;5.92;83.24
73101;BME280;61288;53.446;-2.266;2023-04-02T06:29:05;102345.53;;;5.87;83.84
73101;BME280;61288;53.446;-2.266;2023-04-02T06:31:54;102358.38;;;5.84;84.48
73101;BME280;61288;53.446;-2.266;2023-04-02T06:34:23;102360.94;;;5.81;84.21
73101;BME280;61288;53.446;-2.266;2023-04-02T06:36:54;102361.75;;;5.75;83.96
73101;BME280;61288;53.446;-2.266;2023-04-02T06:39:23;102374.59;;;5.71;84.01
73101;BME280;61288;53.446;-2.266;2023-04-02T06:42:05;102374.56;;;5.68;83.72
73101;BME280;61288;53.446;-2.266;2023-04-02T06:44:35;102372.84;;;5.67;83.94
73101;BME280;61288;53.446;-2.266;2023-04-02T06:47:10;102377.16;;;5.68;83.83
73101;BME280;61288;53.446;-2.266;2023-04-02T06:49:44;102389.16;;;5.69;84.21
73101;BME280;61288;53.446;-2.266;2023-04-02T06:52:51;102398.59;;;5.71;84.72
73101;BME280;61288;53.446;-2.266;2023-04-02T06:55:46;102399.41;;;5.67;83.60
73101;BME280;61288;53.446;-2.266;2023-04-02T06:58:16;102406.25;;;5.65;83.27
73101;BME280;61288;53.446;-2.266;2023-04-02T07:00:46;102413.16;;;5.68;83.25
73101;BME280;61288;53.446;-2.266;2023-04-02T07:03:21;102413.97;;;5.63;83.18
73101;BME280;61288;53.446;-2.266;2023-04-02T07:05:52;102419.06;;;5.60;82.91
73101;BME280;61288;53.446;-2.266;2023-04-02T07:08:17;102409.66;;;5.58;82.95
73101;BME280;61288;53.446;-2.266;2023-04-02T07:10:43;102411.38;;;5.59;82.63
73101;BME280;61288;53.446;-2.266;2023-04-02T07:13:14;102412.22;;;5.59;82.13
73101;BME280;61288;53.446;-2.266;2023-04-02T07:15:40;102431.06;;;5.57;82.07
73101;BME280;61288;53.446;-2.266;2023-04-02T07:18:30;102420.81;;;5.60;82.23
73101;BME280;61288;53.446;-2.266;2023-04-02T07:20:57;102424.28;;;5.68;82.01
73101;BME280;61288;53.446;-2.266;2023-04-02T07:23:26;102427.75;;;5.72;81.49
73101;BME280;61288;53.446;-2.266;2023-04-02T07:25:55;102431.19;;;5.75;81.20
73101;BME280;61288;53.446;-2.266;2023-04-02T07:28:21;102432.09;;;5.79;81.66
73101;BME280;61288;53.446;-2.266;2023-04-02T07:30:47;102432.13;;;5.84;81.44
73101;BME280;61288;53.446;-2.266;2023-04-02T07:33:14;102435.56;;;5.84;79.72
73101;BME280;61288;53.446;-2.266;2023-04-02T07:35:41;102440.75;;;5.89;79.67
73101;BME280;61288;53.446;-2.266;2023-04-02T07:38:08;102441.59;;;5.92;79.41
73101;BME280;61288;53.446;-2.266;2023-04-02T07:40:37;102443.31;;;5.90;78.72
73101;BME280;61288;53.446;-2.266;2023-04-02T07:43:03;102444.16;;;5.88;79.02
73101;BME280;61288;53.446;-2.266;2023-04-02T07:45:29;102443.31;;;5.90;79.40
73101;BME280;61288;53.446;-2.266;2023-04-02T07:47:54;102453.59;;;5.90;78.25
73101;BME280;61288;53.446;-2.266;2023-04-02T07:50:20;102448.50;;;5.95;78.15
73101;BME280;61288;53.446;-2.266;2023-04-02T07:52:46;102456.34;;;6.06;77.96
73101;BME280;61288;53.446;-2.266;2023-04-02T07:55:14;102459.84;;;6.24;76.93
73101;BME280;61288;53.446;-2.266;2023-04-02T07:57:53;102467.66;;;6.33;76.13
73101;BME280;61288;53.446;-2.266;2023-04-02T08:00:20;102473.69;;;6.40;75.57
73101;BME280;61288;53.446;-2.266;2023-04-02T08:02:52;102489.19;;;6.50;75.29
73101;BME280;61288;53.446;-2.266;2023-04-02T08:05:17;102483.22;;;6.56;74.39
73101;BME280;61288;53.446;-2.266;2023-04-02T08:07:50;102485.78;;;6.58;75.07
73101;BME280;61288;53.446;-2.266;2023-04-02T08:10:16;102495.22;;;6.56;74.33
73101;BME280;61288;53.446;-2.266;2023-04-02T08:12:46;102497.84;;;6.60;73.87
73101;BME280;61288;53.446;-2.266;2023-04-02T08:15:20;102496.97;;;6.60;73.29
73101;BME280;61288;53.446;-2.266;2023-04-02T08:17:46;102493.56;;;6.65;73.00
73101;BME280;61288;53.446;-2.266;2023-04-02T08:20:20;102492.69;;;6.63;72.65
73101;BME280;61288;53.446;-2.266;2023-04-02T08:22:49;102500.41;;;6.62;72.21
73101;BME280;61288;53.446;-2.266;2023-04-02T08:25:15;102498.69;;;6.62;71.46
73101;BME280;61288;53.446;-2.266;2023-04-02T08:27:41;102503.84;;;6.59;71.42
73101;BME280;61288;53.446;-2.266;2023-04-02T08:30:07;102500.41;;;6.57;72.58
73101;BME280;61288;53.446;-2.266;2023-04-02T08:32:36;102508.09;;;6.56;71.89
73101;BME280;61288;53.446;-2.266;2023-04-02T08:35:09;102510.66;;;6.53;72.24
73101;BME280;61288;53.446;-2.266;2023-04-02T08:37:35;102514.13;;;6.58;72.54
73101;BME280;61288;53.446;-2.266;2023-04-02T08:40:01;102521.88;;;6.62;72.12
73101;BME280;61288;53.446;-2.266;2023-04-02T08:42:38;102524.50;;;6.70;71.38
73101;BME280;61288;53.446;-2.266;2023-04-02T08:47:50;102533.19;;;6.89;71.36
73101;BME280;61288;53.446;-2.266;2023-04-02T08:50:38;102536.66;;;6.96;70.53
73101;BME280;61288;53.446;-2.266;2023-04-02T08:53:10;102537.53;;;7.03;70.78
73101;BME280;61288;53.446;-2.266;2023-04-02T08:55:44;102533.22;;;6.99;70.07
73101;BME280;61288;53.446;-2.266;2023-04-02T09:01:08;102545.38;;;7.29;70.06
73101;BME280;61288;53.446;-2.266;2023-04-02T09:03:39;102550.53;;;7.43;69.18
73101;BME280;61288;53.446;-2.266;2023-04-02T09:06:09;102542.00;;;7.60;69.55
73101;BME280;61288;53.446;-2.266;2023-04-02T09:08:38;102544.56;;;7.66;70.04
73101;BME280;61288;53.446;-2.266;2023-04-02T09:13:41;102552.34;;;7.86;67.84
73101;BME280;61288;53.446;-2.266;2023-04-02T09:16:13;102547.19;;;7.88;67.29
73101;BME280;61288;53.446;-2.266;2023-04-02T09:18:40;102558.34;;;7.91;65.89
73101;BME280;61288;53.446;-2.266;2023-04-02T09:21:30;102559.22;;;7.89;66.68
73101;BME280;61288;53.446;-2.266;2023-04-02T09:23:58;102564.38;;;8.01;66.91
73101;BME280;61288;53.446;-2.266;2023-04-02T09:26:30;102560.94;;;7.94;66.76
73101;BME280;61288;53.446;-2.266;2023-04-02T09:31:54;102570.41;;;8.00;65.79
73101;BME280;61288;53.446;-2.266;2023-04-02T09:34:31;102575.56;;;8.00;65.85
73101;BME280;61288;53.446;-2.266;2023-04-02T09:37:07;102581.59;;;8.16;66.02
73101;BME280;61288;53.446;-2.266;2023-04-02T09:39:33;102582.47;;;8.54;66.23
73101;BME280;61288;53.446;-2.266;2023-04-02T09:42:05;102589.34;;;8.69;64.46
73101;BME280;61288;53.446;-2.266;2023-04-02T09:44:35;102591.00;;;8.90;64.24
73101;BME280;61288;53.446;-2.266;2023-04-02T09:47:04;102588.38;;;9.07;62.19
73101;BME280;61288;53.446;-2.266;2023-04-02T09:49:35;102596.00;;;9.34;63.18
73101;BME280;61288;53.446;-2.266;2023-04-02T09:54:36;102598.97;;;10.07;59.93
73101;BME280;61288;53.446;-2.266;2023-04-02T09:57:14;102601.16;;;10.59;58.24
73101;BME280;61288;53.446;-2.266;2023-04-02T09:59:41;102602.22;;;11.19;58.47
73101;BME280;61288;53.446;-2.266;2023-04-02T10:02:27;102598.38;;;11.48;57.57
73101;BME280;61288;53.446;-2.266;2023-04-02T10:04:54;102601.47;;;11.73;57.12
73101;BME280;61288;53.446;-2.266;2023-04-02T10:07:36;102607.38;;;11.22;55.59
73101;BME280;61288;53.446;-2.266;2023-04-02T10:12:42;102618.78;;;11.07;56.04
73101;BME280;61288;53.446;-2.266;2023-04-02T10:15:17;102624.44;;;10.65;56.44
73101;BME280;61288;53.446;-2.266;2023-04-02T10:17:58;102631.38;;;10.63;57.49
73101;BME280;61288;53.446;-2.266;2023-04-02T10:20:26;102638.31;;;10.58;59.75
73101;BME280;61288;53.446;-2.266;2023-04-02T10:22:53;102629.69;;;10.55;58.08
73101;BME280;61288;53.446;-2.266;2023-04-02T10:25:20;102634.56;;;10.88;57.45
73101;BME280;61288;53.446;-2.266;2023-04-02T10:28:17;102638.88;;;10.88;56.11
73101;BME280;61288;53.446;-2.266;2023-04-02T10:31:02;102637.06;;;10.99;55.66
73101;BME280;61288;53.446;-2.266;2023-04-02T10:33:39;102643.00;;;11.06;57.60
73101;BME280;61288;53.446;-2.266;2023-04-02T10:38:50;102651.78;;;11.67;54.95
73101;BME280;61288;53.446;-2.266;2023-04-02T10:41:27;102658.25;;;12.01;54.00
73101;BME280;61288;53.446;-2.266;2023-04-02T10:44:23;102667.66;;;12.11;53.61
73101;BME280;61288;53.446;-2.266;2023-04-02T10:47:24;102661.63;;;12.06;52.80
73101;BME280;61288;53.446;-2.266;2023-04-02T10:50:07;102657.19;;;12.15;50.49
73101;BME280;61288;53.446;-2.266;2023-04-02T10:53:06;102664.16;;;12.12;54.73
73101;BME280;61288;53.446;-2.266;2023-04-02T10:55:37;102667.88;;;12.51;50.92
73101;BME280;61288;53.446;-2.266;2023-04-02T10:58:23;102665.81;;;12.70;53.54
73101;BME280;61288;53.446;-2.266;2023-04-02T11:00:54;102676.78;;;13.32;50.88
73101;BME280;61288;53.446;-2.266;2023-04-02T11:03:32;102673.47;;;14.05;49.75
73101;BME280;61288;53.446;-2.266;2023-04-02T11:06:25;102674.28;;;14.78;45.49
73101;BME280;61288;53.446;-2.266;2023-04-02T11:08:59;102675.16;;;14.79;46.04
73101;BME280;61288;53.446;-2.266;2023-04-02T11:11:55;102680.03;;;14.93;45.02
73101;BME280;61288;53.446;-2.266;2023-04-02T11:14:26;102684.56;;;15.48;45.78
73101;BME280;61288;53.446;-2.266;2023-04-02T11:16:54;102685.13;;;15.57;44.41
73101;BME280;61288;53.446;-2.266;2023-04-02T11:19:28;102690.94;;;15.97;46.67
73101;BME280;61288;53.446;-2.266;2023-04-02T11:22:03;102687.16;;;16.06;44.46
73101;BME280;61288;53.446;-2.266;2023-04-02T11:32:41;102690.13;;;16.49;42.58
73101;BME280;61288;53.446;-2.266;2023-04-02T11:35:24;102694.09;;;16.61;42.69
73101;BME280;61288;53.446;-2.266;2023-04-02T11:37:51;102681.75;;;16.12;44.99
73101;BME280;61288;53.446;-2.266;2023-04-02T11:40:44;102689.88;;;16.03;43.12
73101;BME280;61288;53.446;-2.266;2023-04-02T11:48:46;102694.25;;;15.12;43.24
73101;BME280;61288;53.446;-2.266;2023-04-02T11:53:52;102691.88;;;14.70;43.79
73101;BME280;61288;53.446;-2.266;2023-04-02T11:56:30;102691.03;;;14.71;45.38
73101;BME280;61288;53.446;-2.266;2023-04-02T11:59:11;102692.41;;;14.84;45.20
73101;BME280;61288;53.446;-2.266;2023-04-02T12:01:49;102688.31;;;15.07;46.36
73101;BME280;61288;53.446;-2.266;2023-04-02T12:09:22;102697.81;;;15.40;44.39
73101;BME280;61288;53.446;-2.266;2023-04-02T12:11:50;102702.50;;;15.60;44.20
73101;BME280;61288;53.446;-2.266;2023-04-02T12:17:11;102697.81;;;16.00;41.33
73101;BME280;61288;53.446;-2.266;2023-04-02T12:19:38;102701.78;;;15.83;44.82
73101;BME280;61288;53.446;-2.266;2023-04-02T12:22:04;102701.50;;;15.64;39.89
73101;BME280;61288;53.446;-2.266;2023-04-02T12:24:29;102701.78;;;15.83;40.14
73101;BME280;61288;53.446;-2.266;2023-04-02T12:27:10;102705.06;;;15.62;40.93
73101;BME280;61288;53.446;-2.266;2023-04-02T12:29:41;102701.75;;;15.55;38.22
73101;BME280;61288;53.446;-2.266;2023-04-02T12:32:39;102708.22;;;15.43;38.68
73101;BME280;61288;53.446;-2.266;2023-04-02T12:35:05;102710.75;;;15.46;40.33
73101;BME280;61288;53.446;-2.266;2023-04-02T12:37:31;102712.59;;;15.41;39.59
73101;BME280;61288;53.446;-2.266;2023-04-02T12:40:15;102716.06;;;15.43;39.98
73101;BME280;61288;53.446;-2.266;2023-04-02T12:42:45;102713.47;;;15.71;41.93
73101;BME280;61288;53.446;-2.266;2023-04-02T12:45:22;102713.56;;;15.68;38.52
73101;BME280;61288;53.446;-2.266;2023-04-02T12:47:48;102710.00;;;15.71;38.23
73101;BME280;61288;53.446;-2.266;2023-04-02T12:50:14;102704.94;;;15.65;38.02
73101;BME280;61288;53.446;-2.266;2023-04-02T12:52:46;102707.47;;;15.68;38.63
73101;BME280;61288;53.446;-2.266;2023-04-02T12:55:21;102702.84;;;15.48;39.28
73101;BME280;61288;53.446;-2.266;2023-04-02T12:57:57;102702.03;;;15.76;39.09
73101;BME280;61288;53.446;-2.266;2023-04-02T13:07:57;102706.28;;;16.08;40.07
73101;BME280;61288;53.446;-2.266;2023-04-02T13:10:25;102710.41;;;16.15;38.72
73101;BME280;61288;53.446;-2.266;2023-04-02T13:12:58;102711.44;;;16.11;40.23
73101;BME280;61288;53.446;-2.266;2023-04-02T13:15:30;102713.69;;;15.64;38.16
73101;BME280;61288;53.446;-2.266;2023-04-02T13:18:12;102709.53;;;15.86;38.96
73101;BME280;61288;53.446;-2.266;2023-04-02T13:20:42;102705.31;;;15.82;41.78
73101;BME280;61288;53.446;-2.266;2023-04-02T13:25:53;102696.03;;;16.29;41.90
73101;BME280;61288;53.446;-2.266;2023-04-02T13:28:19;102695.28;;;16.25;38.00
73101;BME280;61288;53.446;-2.266;2023-04-02T13:30:45;102691.47;;;16.36;35.87
73101;BME280;61288;53.446;-2.266;2023-04-02T13:33:11;102696.91;;;16.55;37.15
73101;BME280;61288;53.446;-2.266;2023-04-02T13:35:37;102692.50;;;16.30;35.34
73101;BME280;61288;53.446;-2.266;2023-04-02T13:52:45;102669.94;;;15.42;37.40
73101;BME280;61288;53.446;-2.266;2023-04-02T14:03:12;102677.34;;;14.94;36.57
73101;BME280;61288;53.446;-2.266;2023-04-02T14:12:06;102685.50;;;15.75;36.15
73101;BME280;61288;53.446;-2.266;2023-04-02T14:14:42;102692.97;;;15.86;35.16
73101;BME280;61288;53.446;-2.266;2023-04-02T14:28:10;102669.94;;;14.79;36.04
73101;BME280;61288;53.446;-2.266;2023-04-02T14:31:14;102671.34;;;14.91;36.61
73101;BME280;61288;53.446;-2.266;2023-04-02T14:36:59;102675.03;;;14.49;36.65
73101;BME280;61288;53.446;-2.266;2023-04-02T14:43:26;102666.25;;;14.51;37.28
73101;BME280;61288;53.446;-2.266;2023-04-02T14:47:58;102670.81;;;14.43;36.97
73101;BME280;61288;53.446;-2.266;2023-04-02T14:50:40;102669.28;;;14.70;38.86
73101;BME280;61288;53.446;-2.266;2023-04-02T14:53:28;102663.91;;;14.42;38.89
73101;BME280;61288;53.446;-2.266;2023-04-02T14:56:00;102661.63;;;14.28;38.62
73101;BME280;61288;53.446;-2.266;2023-04-02T14:58:33;102657.00;;;14.03;38.75
73101;BME280;61288;53.446;-2.266;2023-04-02T15:01:05;102658.13;;;14.29;39.51
73101;BME280;61288;53.446;-2.266;2023-04-02T15:03:39;102659.69;;;14.36;38.10
73101;BME280;61288;53.446;-2.266;2023-04-02T15:06:12;102653.66;;;14.34;39.08
73101;BME280;61288;53.446;-2.266;2023-04-02T15:08:46;102663.69;;;14.15;38.36
73101;BME280;61288;53.446;-2.266;2023-04-02T15:11:21;102654.75;;;14.25;39.35
73101;BME280;61288;53.446;-2.266;2023-04-02T15:13:56;102669.06;;;14.07;39.19
73101;BME280;61288;53.446;-2.266;2023-04-02T15:16:26;102664.91;;;14.00;39.44
73101;BME280;61288;53.446;-2.266;2023-04-02T15:18:54;102667.81;;;13.88;39.47
73101;BME280;61288;53.446;-2.266;2023-04-02T15:26:37;102659.41;;;13.75;41.29
73101;BME280;61288;53.446;-2.266;2023-04-02T15:34:45;102672.31;;;14.17;41.27
73101;BME280;61288;53.446;-2.266;2023-04-02T15:39:47;102661.31;;;14.04;40.88
73101;BME280;61288;53.446;-2.266;2023-04-02T15:42:32;102670.75;;;14.10;40.48
73101;BME280;61288;53.446;-2.266;2023-04-02T15:50:14;102668.44;;;13.58;40.01
73101;BME280;61288;53.446;-2.266;2023-04-02T15:55:48;102675.31;;;13.62;40.22
73101;BME280;61288;53.446;-2.266;2023-04-02T15:58:51;102678.75;;;13.64;40.25
73101;BME280;61288;53.446;-2.266;2023-04-02T16:06:25;102688.03;;;13.76;41.41
73101;BME280;61288;53.446;-2.266;2023-04-02T16:11:27;102679.28;;;13.79;41.47
73101;BME280;61288;53.446;-2.266;2023-04-02T16:14:00;102683.00;;;13.68;41.54
73101;BME280;61288;53.446;-2.266;2023-04-02T16:16:32;102685.75;;;13.62;41.46
73101;BME280;61288;53.446;-2.266;2023-04-02T16:21:57;102694.47;;;13.58;41.67
73101;BME280;61288;53.446;-2.266;2023-04-02T16:24:25;102698.28;;;13.40;41.56
73101;BME280;61288;53.446;-2.266;2023-04-02T16:37:55;102705.03;;;13.06;42.84
73101;BME280;61288;53.446;-2.266;2023-04-02T16:40:35;102703.59;;;12.90;43.14
73101;BME280;61288;53.446;-2.266;2023-04-02T16:43:20;102710.59;;;12.86;43.14
73101;BME280;61288;53.446;-2.266;2023-04-02T16:48:41;102721.16;;;12.78;42.68